Time;durP1;ratioP1;P1;durP2;ratioP2;P2;SDS_P1;SDS_P2;PMS_P1;PMS_P2;Temp;Humidity;BMP_temperature;BMP_pressure;BME280_temperature;BME280_humidity;BME280_pressure;Samples;Min_cycle;Max_cycle;Signal;HPM_P1;HPM_P2
2023/10/15 00:00:12;;;;;;;1.55;0.90;;;;;;;;;;5104440;28;41929;-71
2023/10/15 00:02:41;;;;;;;2.35;1.10;;;;;;;;;;5098367;28;43013;-70
2023/10/15 00:05:12;;;;;;;2.80;0.88;;;;;;;;;;5108443;28;40362;-71
2023/10/15 00:07:40;;;;;;;3.63;1.15;;;;;;;;;;5108161;27;40528;-70
2023/10/15 00:10:10;;;;;;;2.67;0.90;;;;;;;;;;5107300;28;40260;-71
2023/10/15 00:12:38;;;;;;;2.60;1.00;;;;;;;;;;5108025;27;41145;-70
2023/10/15 00:15:08;;;;;;;3.58;0.90;;;;;;;;;;5104774;27;42647;-70
2023/10/15 00:17:36;;;;;;;2.35;1.02;;;;;;;;;;5106978;28;40867;-70
2023/10/15 00:20:10;;;;;;;2.53;0.80;;;;;;;;;;5108465;28;41658;-70
2023/10/15 00:22:42;;;;;;;2.13;0.85;;;;;;;;;;5105995;27;43080;-70
2023/10/15 00:25:12;;;;;;;1.92;0.80;;;;;;;;;;5100129;28;40399;-71
2023/10/15 00:27:40;;;;;;;1.23;0.80;;;;;;;;;;5104459;27;42089;-70
2023/10/15 00:30:12;;;;;;;2.70;1.20;;;;;;;;;;5096541;28;40482;-70
2023/10/15 00:32:43;;;;;;;1.20;0.52;;;;;;;;;;5105256;27;40835;-70
2023/10/15 00:35:13;;;;;;;2.92;0.85;;;;;;;;;;5107736;28;40942;-70
2023/10/15 00:37:52;;;;;;;1.50;0.63;;;;;;;;;;5099522;28;42152;-70
2023/10/15 00:40:20;;;;;;;1.10;0.70;;;;;;;;;;5103438;28;41466;-69
2023/10/15 00:42:47;;;;;;;2.05;0.85;;;;;;;;;;5107054;27;42031;-69
2023/10/15 00:45:15;;;;;;;1.55;0.60;;;;;;;;;;5093288;27;40017;-69
2023/10/15 00:47:44;;;;;;;1.90;0.80;;;;;;;;;;5101203;27;41746;-70
2023/10/15 00:50:14;;;;;;;1.15;0.55;;;;;;;;;;5101875;27;42726;-69
2023/10/15 00:52:43;;;;;;;1.60;0.68;;;;;;;;;;5092177;28;39675;-70
2023/10/15 00:55:16;;;;;;;2.05;0.80;;;;;;;;;;5100921;27;41734;-70
2023/10/15 00:57:46;;;;;;;1.70;0.60;;;;;;;;;;5088646;27;40664;-70
2023/10/15 01:02:57;;;;;;;2.20;0.70;;;;;;;;;;5107295;28;42120;-71
2023/10/15 01:05:26;;;;;;;1.77;0.57;;;;;;;;;;5089611;28;40892;-69
2023/10/15 01:07:55;;;;;;;0.90;0.40;;;;;;;;;;5096770;28;41338;-69
2023/10/15 01:10:32;;;;;;;1.30;0.60;;;;;;;;;;5090977;27;40993;-70
2023/10/15 01:13:10;;;;;;;1.13;0.40;;;;;;;;;;5096832;28;40627;-69
2023/10/15 01:15:42;;;;;;;1.00;0.50;;;;;;;;;;5099897;28;41504;-69
2023/10/15 01:18:10;;;;;;;1.88;0.60;;;;;;;;;;5093221;27;40128;-69
2023/10/15 01:20:42;;;;;;;1.35;0.70;;;;;;;;;;5092205;28;41646;-69
2023/10/15 01:23:28;;;;;;;1.65;0.55;;;;;;;;;;5104349;28;41732;-69
2023/10/15 01:25:59;;;;;;;1.55;0.90;;;;;;;;;;5104146;28;40340;-69
2023/10/15 01:28:36;;;;;;;2.60;0.75;;;;;;;;;;5094908;28;40125;-69
2023/10/15 01:31:06;;;;;;;2.13;0.50;;;;;;;;;;5102061;28;42075;-69
2023/10/15 01:33:45;;;;;;;1.65;0.60;;;;;;;;;;5106404;28;40174;-69
2023/10/15 01:36:17;;;;;;;3.50;0.52;;;;;;;;;;5089072;28;41382;-70
2023/10/15 01:38:46;;;;;;;1.40;0.60;;;;;;;;;;5089309;27;40275;-69
2023/10/15 01:41:16;;;;;;;1.98;0.80;;;;;;;;;;5092701;27;42246;-70
2023/10/15 01:43:46;;;;;;;3.20;0.63;;;;;;;;;;5104008;28;41621;-69
2023/10/15 01:46:25;;;;;;;1.10;0.50;;;;;;;;;;5087666;28;43011;-70
2023/10/15 01:48:53;;;;;;;2.20;0.90;;;;;;;;;;5101204;28;42316;-69
2023/10/15 01:51:22;;;;;;;2.10;0.50;;;;;;;;;;5099509;28;42398;-69
2023/10/15 01:53:50;;;;;;;1.98;0.85;;;;;;;;;;5106013;27;41247;-70
2023/10/15 01:56:20;;;;;;;1.88;0.80;;;;;;;;;;5109891;28;42270;-69
2023/10/15 01:58:48;;;;;;;1.85;0.57;;;;;;;;;;5108841;27;33238;-69
2023/10/15 02:01:34;;;;;;;0.85;0.45;;;;;;;;;;5102092;28;41038;-69
2023/10/15 02:04:02;;;;;;;1.42;0.60;;;;;;;;;;5092114;28;42817;-70
2023/10/15 02:06:35;;;;;;;2.00;0.70;;;;;;;;;;5108622;27;39522;-69
2023/10/15 02:09:07;;;;;;;1.42;0.40;;;;;;;;;;5092678;28;42347;-69
2023/10/15 02:11:43;;;;;;;1.17;0.50;;;;;;;;;;5106839;28;41449;-69
2023/10/15 02:14:16;;;;;;;1.45;0.50;;;;;;;;;;5107923;27;39295;-69
2023/10/15 02:16:49;;;;;;;0.73;0.43;;;;;;;;;;5107724;28;40946;-69
2023/10/15 02:19:28;;;;;;;1.42;0.60;;;;;;;;;;5108903;27;40826;-69
2023/10/15 02:21:56;;;;;;;1.90;0.57;;;;;;;;;;5107530;27;41621;-70
2023/10/15 02:24:24;;;;;;;1.60;0.50;;;;;;;;;;5095683;28;42340;-69
2023/10/15 02:26:54;;;;;;;1.65;0.52;;;;;;;;;;5101767;27;40131;-70
2023/10/15 02:29:34;;;;;;;1.17;0.50;;;;;;;;;;5100480;28;41363;-69
2023/10/15 02:32:20;;;;;;;0.60;0.40;;;;;;;;;;5104378;27;42090;-70
2023/10/15 02:34:51;;;;;;;1.10;0.60;;;;;;;;;;5106391;28;40300;-69
2023/10/15 02:37:19;;;;;;;1.05;0.40;;;;;;;;;;5098382;28;40274;-70
2023/10/15 02:39:50;;;;;;;0.68;0.40;;;;;;;;;;5102911;27;41178;-70
2023/10/15 02:42:21;;;;;;;1.58;0.50;;;;;;;;;;5107012;27;41312;-69
2023/10/15 02:44:50;;;;;;;1.58;0.60;;;;;;;;;;5108313;27;41943;-69
2023/10/15 02:47:28;;;;;;;2.45;0.50;;;;;;;;;;5110678;28;39637;-69
2023/10/15 02:50:00;;;;;;;0.63;0.40;;;;;;;;;;5109295;27;41652;-71
2023/10/15 02:52:35;;;;;;;3.05;0.50;;;;;;;;;;5106016;28;41695;-69
2023/10/15 02:55:09;;;;;;;1.50;0.73;;;;;;;;;;5104443;28;40040;-69
2023/10/15 02:57:39;;;;;;;0.73;0.50;;;;;;;;;;5096771;27;40200;-69
2023/10/15 03:00:17;;;;;;;0.93;0.45;;;;;;;;;;5095555;27;40893;-70
2023/10/15 03:02:46;;;;;;;1.33;0.50;;;;;;;;;;5094620;28;40325;-70
2023/10/15 03:05:15;;;;;;;0.98;0.40;;;;;;;;;;5104909;27;42677;-69
2023/10/15 03:07:43;;;;;;;1.67;0.57;;;;;;;;;;5108374;27;40024;-69
2023/10/15 03:10:12;;;;;;;0.70;0.40;;;;;;;;;;5109946;28;41653;-70
2023/10/15 03:12:44;;;;;;;0.77;0.50;;;;;;;;;;5109033;28;41503;-69
2023/10/15 03:15:13;;;;;;;1.15;0.50;;;;;;;;;;5105449;28;40425;-69
2023/10/15 03:17:41;;;;;;;0.43;0.40;;;;;;;;;;5103255;27;41554;-69
2023/10/15 03:20:22;;;;;;;1.23;0.50;;;;;;;;;;5099366;28;42738;-69
2023/10/15 03:22:51;;;;;;;1.10;0.52;;;;;;;;;;5102982;27;40877;-69
2023/10/15 03:25:20;;;;;;;1.42;0.47;;;;;;;;;;5101989;28;43135;-70
2023/10/15 03:27:54;;;;;;;1.58;0.50;;;;;;;;;;5108230;28;42074;-69
2023/10/15 03:30:23;;;;;;;0.90;0.40;;;;;;;;;;5105945;28;41134;-69
2023/10/15 03:32:52;;;;;;;1.70;0.50;;;;;;;;;;5099721;28;42672;-69
2023/10/15 03:35:32;;;;;;;0.93;0.60;;;;;;;;;;5101186;28;41306;-69
2023/10/15 03:38:05;;;;;;;0.98;0.40;;;;;;;;;;5105673;28;41494;-69
2023/10/15 03:40:42;;;;;;;1.27;0.50;;;;;;;;;;5105769;28;42094;-69
2023/10/15 03:43:16;;;;;;;0.40;0.32;;;;;;;;;;5101687;27;41874;-68
2023/10/15 03:45:51;;;;;;;1.02;0.50;;;;;;;;;;5108010;28;41451;-69
2023/10/15 03:48:21;;;;;;;1.10;0.65;;;;;;;;;;5106871;27;42093;-69
2023/10/15 03:50:55;;;;;;;0.30;0.30;;;;;;;;;;5107221;28;41330;-69
2023/10/15 03:53:27;;;;;;;0.38;0.30;;;;;;;;;;5099520;27;41887;-69
2023/10/15 03:55:56;;;;;;;0.93;0.38;;;;;;;;;;5102750;28;41318;-69
2023/10/15 03:58:26;;;;;;;1.20;0.30;;;;;;;;;;5105640;27;41677;-69
2023/10/15 04:01:05;;;;;;;0.98;0.50;;;;;;;;;;5104567;28;43090;-70
2023/10/15 04:03:35;;;;;;;1.17;0.47;;;;;;;;;;5102685;27;39932;-69
2023/10/15 04:06:05;;;;;;;1.05;0.50;;;;;;;;;;5097781;27;42634;-69
2023/10/15 04:08:33;;;;;;;1.08;0.30;;;;;;;;;;5093791;27;44253;-69
2023/10/15 04:11:02;;;;;;;1.48;0.40;;;;;;;;;;5102218;27;41082;-70
2023/10/15 04:13:31;;;;;;;2.95;0.70;;;;;;;;;;5091744;27;42756;-70
2023/10/15 04:15:59;;;;;;;1.35;0.40;;;;;;;;;;5098999;28;41270;-69
2023/10/15 04:18:29;;;;;;;0.70;0.40;;;;;;;;;;5105503;27;41654;-69
2023/10/15 04:20:58;;;;;;;0.57;0.30;;;;;;;;;;5101348;28;41795;-69
2023/10/15 04:23:35;;;;;;;1.15;0.40;;;;;;;;;;5106591;27;39162;-69
2023/10/15 04:26:11;;;;;;;1.08;0.40;;;;;;;;;;5091258;28;41530;-69
2023/10/15 04:28:41;;;;;;;1.85;0.40;;;;;;;;;;5090810;28;43735;-69
2023/10/15 04:31:11;;;;;;;1.20;0.50;;;;;;;;;;5106962;28;40336;-69
2023/10/15 04:33:41;;;;;;;1.90;0.40;;;;;;;;;;5106956;27;41630;-69
2023/10/15 04:36:09;;;;;;;1.15;0.30;;;;;;;;;;5098478;28;39938;-69
2023/10/15 04:38:38;;;;;;;2.13;0.20;;;;;;;;;;5105695;28;20251;-69
2023/10/15 04:41:06;;;;;;;1.98;0.40;;;;;;;;;;5091213;28;41092;-69
2023/10/15 04:43:42;;;;;;;0.65;0.40;;;;;;;;;;5100193;28;39884;-69
2023/10/15 04:46:17;;;;;;;1.15;0.57;;;;;;;;;;5101089;28;41554;-69
2023/10/15 04:48:46;;;;;;;1.50;0.40;;;;;;;;;;5105418;28;41821;-69
2023/10/15 04:51:14;;;;;;;1.60;0.55;;;;;;;;;;5106761;27;41935;-69
2023/10/15 04:53:44;;;;;;;0.50;0.30;;;;;;;;;;5094183;27;41816;-69
2023/10/15 04:56:12;;;;;;;1.48;0.50;;;;;;;;;;5107867;27;41446;-69
2023/10/15 04:58:40;;;;;;;1.05;0.40;;;;;;;;;;5107030;27;41191;-69
2023/10/15 05:01:09;;;;;;;0.85;0.40;;;;;;;;;;5108187;28;42461;-69
2023/10/15 05:03:38;;;;;;;1.65;0.60;;;;;;;;;;5102176;27;40918;-69
2023/10/15 05:06:10;;;;;;;0.60;0.30;;;;;;;;;;5086437;28;41639;-69
2023/10/15 05:08:40;;;;;;;1.30;0.60;;;;;;;;;;5088328;27;43740;-69
2023/10/15 05:11:08;;;;;;;1.17;0.45;;;;;;;;;;5107566;28;40875;-70
2023/10/15 05:13:36;;;;;;;1.23;0.50;;;;;;;;;;5106654;27;41898;-69
2023/10/15 05:16:05;;;;;;;1.73;0.40;;;;;;;;;;5107190;27;41784;-69
2023/10/15 05:18:33;;;;;;;0.80;0.40;;;;;;;;;;5093152;27;40430;-69
2023/10/15 05:21:02;;;;;;;1.00;0.47;;;;;;;;;;5107118;28;42444;-69
2023/10/15 05:23:30;;;;;;;1.02;0.45;;;;;;;;;;5092459;27;40665;-69
2023/10/15 05:25:58;;;;;;;1.55;0.50;;;;;;;;;;5103303;28;42272;-69
2023/10/15 05:28:29;;;;;;;0.70;0.40;;;;;;;;;;5106691;27;42414;-69
2023/10/15 05:30:57;;;;;;;1.58;0.40;;;;;;;;;;5099480;27;41279;-69
2023/10/15 05:33:26;;;;;;;1.10;0.63;;;;;;;;;;5103300;28;41091;-68
2023/10/15 05:35:55;;;;;;;0.68;0.30;;;;;;;;;;5096558;27;41585;-69
2023/10/15 05:38:26;;;;;;;1.15;0.40;;;;;;;;;;5101879;28;41052;-69
2023/10/15 05:40:57;;;;;;;1.60;0.43;;;;;;;;;;5107225;27;41756;-69
2023/10/15 05:43:25;;;;;;;0.90;0.40;;;;;;;;;;5089761;28;40229;-70
2023/10/15 05:45:53;;;;;;;0.40;0.40;;;;;;;;;;5101331;27;41235;-69
2023/10/15 05:48:21;;;;;;;2.10;0.45;;;;;;;;;;5090693;27;42412;-69
2023/10/15 05:50:49;;;;;;;4.30;0.30;;;;;;;;;;5093897;28;40907;-69
2023/10/15 05:53:17;;;;;;;4.57;0.40;;;;;;;;;;5100468;28;41606;-69
2023/10/15 05:55:47;;;;;;;3.10;0.47;;;;;;;;;;5100963;28;42119;-70
2023/10/15 05:58:15;;;;;;;1.92;0.30;;;;;;;;;;5101827;27;40767;-69
2023/10/15 06:00:43;;;;;;;4.65;0.60;;;;;;;;;;5096219;28;41276;-69
2023/10/15 06:03:11;;;;;;;3.53;0.45;;;;;;;;;;5090912;28;42051;-69
2023/10/15 06:05:40;;;;;;;3.03;0.30;;;;;;;;;;5102799;27;41375;-69
2023/10/15 06:08:08;;;;;;;4.38;0.52;;;;;;;;;;5106240;28;42096;-69
2023/10/15 06:10:36;;;;;;;2.17;0.40;;;;;;;;;;5095047;28;40969;-69
2023/10/15 06:13:05;;;;;;;1.65;0.47;;;;;;;;;;5093521;28;41552;-69
2023/10/15 06:15:34;;;;;;;1.67;0.30;;;;;;;;;;5094845;28;42174;-69
2023/10/15 06:18:01;;;;;;;4.18;0.50;;;;;;;;;;5099878;28;40081;-68
2023/10/15 06:20:30;;;;;;;1.38;0.40;;;;;;;;;;5090644;27;41436;-69
2023/10/15 06:23:03;;;;;;;1.35;0.25;;;;;;;;;;5096204;28;42091;-69
2023/10/15 06:25:32;;;;;;;5.38;1.10;;;;;;;;;;5090713;27;41193;-69
2023/10/15 06:28:01;;;;;;;2.92;0.43;;;;;;;;;;5102187;27;41959;-70
2023/10/15 06:30:31;;;;;;;5.35;0.50;;;;;;;;;;5088007;28;40973;-69
2023/10/15 06:32:59;;;;;;;5.15;0.47;;;;;;;;;;5095658;28;41336;-69
2023/10/15 06:35:27;;;;;;;5.38;0.35;;;;;;;;;;5104001;27;43107;-69
2023/10/15 06:37:57;;;;;;;4.35;0.52;;;;;;;;;;5102799;28;40440;-69
2023/10/15 06:40:27;;;;;;;7.68;1.10;;;;;;;;;;5106493;28;42373;-69
2023/10/15 06:43:00;;;;;;;10.05;0.50;;;;;;;;;;5107533;27;40248;-69
2023/10/15 06:45:29;;;;;;;1.02;0.30;;;;;;;;;;5087997;28;40399;-69
2023/10/15 06:47:58;;;;;;;0.95;0.30;;;;;;;;;;5089018;28;42087;-69
2023/10/15 06:50:26;;;;;;;3.58;0.50;;;;;;;;;;5091361;27;41431;-69
2023/10/15 06:52:55;;;;;;;7.68;0.52;;;;;;;;;;5104511;28;41482;-70
2023/10/15 06:55:23;;;;;;;6.15;0.60;;;;;;;;;;5090047;28;42197;-70
2023/10/15 06:57:51;;;;;;;6.90;0.50;;;;;;;;;;5088544;28;41367;-69
2023/10/15 07:00:22;;;;;;;6.80;0.93;;;;;;;;;;5108555;28;41869;-69
2023/10/15 07:02:51;;;;;;;5.18;0.55;;;;;;;;;;5098814;27;42399;-69
2023/10/15 07:05:20;;;;;;;9.65;0.60;;;;;;;;;;5108605;27;41371;-69
2023/10/15 07:07:48;;;;;;;6.13;0.40;;;;;;;;;;5109077;28;41649;-69
2023/10/15 07:10:17;;;;;;;3.92;0.68;;;;;;;;;;5095230;27;40587;-69
2023/10/15 07:12:46;;;;;;;2.30;0.32;;;;;;;;;;5098515;27;42483;-69
2023/10/15 07:15:14;;;;;;;5.70;0.50;;;;;;;;;;5105728;27;42516;-70
2023/10/15 07:17:43;;;;;;;3.10;0.50;;;;;;;;;;5099764;28;41388;-69
2023/10/15 07:20:18;;;;;;;2.92;0.35;;;;;;;;;;5103619;27;41772;-69
2023/10/15 07:22:49;;;;;;;2.67;0.60;;;;;;;;;;5097089;28;41736;-70
2023/10/15 07:25:17;;;;;;;2.10;0.30;;;;;;;;;;5101100;28;40148;-69
2023/10/15 07:27:46;;;;;;;2.03;0.50;;;;;;;;;;5108216;28;41776;-69
2023/10/15 07:30:14;;;;;;;4.85;1.27;;;;;;;;;;5108964;27;43092;-69
2023/10/15 07:32:43;;;;;;;2.28;0.35;;;;;;;;;;5094374;28;41675;-69
2023/10/15 07:35:12;;;;;;;1.23;0.40;;;;;;;;;;5107735;27;41957;-69
2023/10/15 07:37:41;;;;;;;2.38;0.40;;;;;;;;;;5096634;27;40225;-69
2023/10/15 07:40:16;;;;;;;1.25;0.30;;;;;;;;;;5097309;27;42545;-69
2023/10/15 07:42:45;;;;;;;2.28;0.30;;;;;;;;;;5094386;27;40509;-69
2023/10/15 07:45:13;;;;;;;3.00;0.40;;;;;;;;;;5099926;28;39962;-69
2023/10/15 07:47:41;;;;;;;1.52;0.50;;;;;;;;;;5091501;27;42486;-69
2023/10/15 07:50:10;;;;;;;2.13;0.57;;;;;;;;;;5096696;28;41794;-69
2023/10/15 07:52:38;;;;;;;1.20;0.45;;;;;;;;;;5090110;27;41152;-69
2023/10/15 07:55:07;;;;;;;5.72;0.45;;;;;;;;;;5089259;28;42674;-69
2023/10/15 07:57:37;;;;;;;1.48;0.60;;;;;;;;;;5104708;28;40299;-69
2023/10/15 08:00:06;;;;;;;2.92;0.45;;;;;;;;;;5106233;28;40952;-69
2023/10/15 08:02:39;;;;;;;6.95;0.68;;;;;;;;;;5107974;27;43095;-69
2023/10/15 08:05:08;;;;;;;7.88;0.60;;;;;;;;;;5108032;27;40388;-69
2023/10/15 08:07:38;;;;;;;7.68;0.68;;;;;;;;;;5107957;28;42700;-70
2023/10/15 08:10:06;;;;;;;9.77;0.60;;;;;;;;;;5106619;27;42712;-72
2023/10/15 08:12:34;;;;;;;9.00;0.50;;;;;;;;;;5103573;27;41080;-72
2023/10/15 08:15:03;;;;;;;7.32;0.80;;;;;;;;;;5101607;28;41239;-72
2023/10/15 08:17:31;;;;;;;32.35;1.13;;;;;;;;;;5100281;28;40044;-70
2023/10/15 08:20:00;;;;;;;18.20;1.05;;;;;;;;;;5093625;28;42369;-72
2023/10/15 08:22:29;;;;;;;15.93;1.10;;;;;;;;;;5090876;28;42038;-72
2023/10/15 08:24:56;;;;;;;17.45;0.93;;;;;;;;;;5086381;28;38959;-71
2023/10/15 08:27:24;;;;;;;23.10;1.38;;;;;;;;;;5105360;28;41619;-72
2023/10/15 08:29:52;;;;;;;5.32;0.70;;;;;;;;;;5106446;28;43108;-70
2023/10/15 08:32:26;;;;;;;12.52;0.73;;;;;;;;;;5103580;28;40302;-70
2023/10/15 08:34:55;;;;;;;5.03;0.50;;;;;;;;;;5092221;28;42106;-72
2023/10/15 08:37:23;;;;;;;18.65;0.88;;;;;;;;;;5089128;28;40389;-70
2023/10/15 08:39:51;;;;;;;13.20;1.17;;;;;;;;;;5091586;27;41363;-70
2023/10/15 08:42:26;;;;;;;8.20;0.65;;;;;;;;;;5088904;27;42948;-70
2023/10/15 08:44:57;;;;;;;12.52;0.75;;;;;;;;;;5085173;27;40403;-71
2023/10/15 08:47:27;;;;;;;6.28;0.70;;;;;;;;;;5096821;28;41606;-71
2023/10/15 08:49:55;;;;;;;6.32;0.70;;;;;;;;;;5099013;28;42265;-71
2023/10/15 08:52:23;;;;;;;5.68;0.60;;;;;;;;;;5095652;27;40321;-71
2023/10/15 08:54:51;;;;;;;5.13;0.80;;;;;;;;;;5092730;27;42163;-71
2023/10/15 08:57:19;;;;;;;6.00;0.70;;;;;;;;;;5091637;28;42151;-71
2023/10/15 08:59:47;;;;;;;11.63;0.60;;;;;;;;;;5090648;27;41764;-70
2023/10/15 09:02:15;;;;;;;7.90;0.60;;;;;;;;;;5096120;27;43123;-71
2023/10/15 09:04:45;;;;;;;7.18;0.40;;;;;;;;;;5097861;28;40383;-72
2023/10/15 09:07:14;;;;;;;9.20;0.57;;;;;;;;;;5097305;28;41432;-71
2023/10/15 09:09:43;;;;;;;10.23;0.65;;;;;;;;;;5096347;28;42398;-71
2023/10/15 09:12:12;;;;;;;6.57;0.50;;;;;;;;;;5089531;27;40219;-70
2023/10/15 09:14:42;;;;;;;3.92;0.43;;;;;;;;;;5098427;28;41613;-70
2023/10/15 09:17:10;;;;;;;14.65;1.00;;;;;;;;;;5109911;28;43108;-70
2023/10/15 09:19:38;;;;;;;23.10;1.45;;;;;;;;;;5094625;28;41366;-71
2023/10/15 09:22:12;;;;;;;28.67;1.33;;;;;;;;;;5098141;28;41528;-71
2023/10/15 09:24:40;;;;;;;34.35;2.28;;;;;;;;;;5089320;28;41455;-72
2023/10/15 09:27:08;;;;;;;37.50;2.42;;;;;;;;;;5095436;27;42817;-70
2023/10/15 09:29:36;;;;;;;17.27;1.60;;;;;;;;;;5104990;27;41953;-71
2023/10/15 09:32:04;;;;;;;28.35;1.25;;;;;;;;;;5108068;27;40184;-72
2023/10/15 09:34:33;;;;;;;17.35;1.10;;;;;;;;;;5093839;28;42240;-71
2023/10/15 09:37:01;;;;;;;17.52;0.80;;;;;;;;;;5096489;28;41613;-72
2023/10/15 09:39:30;;;;;;;12.85;0.93;;;;;;;;;;5093732;28;41280;-72
2023/10/15 09:42:02;;;;;;;23.02;1.50;;;;;;;;;;5104159;28;41616;-72
2023/10/15 09:44:32;;;;;;;12.10;0.80;;;;;;;;;;5093172;27;40254;-72
2023/10/15 09:47:01;;;;;;;14.05;0.90;;;;;;;;;;5099145;28;42148;-71
2023/10/15 09:49:31;;;;;;;24.45;1.60;;;;;;;;;;5094775;27;43091;-72
2023/10/15 09:52:01;;;;;;;8.68;0.98;;;;;;;;;;5102357;27;41399;-71
2023/10/15 09:54:32;;;;;;;18.25;1.58;;;;;;;;;;5087061;28;42232;-71
2023/10/15 09:57:00;;;;;;;12.45;1.13;;;;;;;;;;5102680;28;43177;-72
2023/10/15 09:59:29;;;;;;;24.27;1.30;;;;;;;;;;5096315;28;40708;-72
2023/10/15 10:01:58;;;;;;;27.35;2.25;;;;;;;;;;5109164;28;41293;-71
2023/10/15 10:04:42;;;;;;;33.17;1.73;;;;;;;;;;5098186;27;41998;-73
2023/10/15 10:07:17;;;;;;;32.80;1.65;;;;;;;;;;5097661;28;42342;-72
2023/10/15 10:09:54;;;;;;;20.95;2.03;;;;;;;;;;5092927;28;41555;-72
2023/10/15 10:12:25;;;;;;;37.72;1.70;;;;;;;;;;5093675;28;41329;-71
2023/10/15 10:15:15;;;;;;;19.10;1.50;;;;;;;;;;5098957;27;42307;-70
2023/10/15 10:17:43;;;;;;;8.27;1.17;;;;;;;;;;5092186;28;41652;-71
2023/10/15 10:20:13;;;;;;;16.35;1.83;;;;;;;;;;5104527;27;40837;-71
2023/10/15 10:22:41;;;;;;;25.08;1.80;;;;;;;;;;5103102;28;42261;-70
2023/10/15 10:25:27;;;;;;;21.90;1.50;;;;;;;;;;5104721;28;42049;-70
2023/10/15 10:28:02;;;;;;;21.63;1.17;;;;;;;;;;5093133;28;41098;-70
2023/10/15 10:30:53;;;;;;;15.05;1.23;;;;;;;;;;5096642;28;41892;-70
2023/10/15 10:33:36;;;;;;;14.65;1.17;;;;;;;;;;5107186;28;41576;-72
2023/10/15 10:36:09;;;;;;;17.05;1.52;;;;;;;;;;5085956;28;41207;-71
2023/10/15 10:38:39;;;;;;;20.20;1.20;;;;;;;;;;5095938;28;43765;-70
2023/10/15 10:41:13;;;;;;;13.45;1.30;;;;;;;;;;5096111;27;41880;-71
2023/10/15 10:43:54;;;;;;;14.48;1.15;;;;;;;;;;5087752;28;41689;-72
2023/10/15 10:46:42;;;;;;;13.63;1.17;;;;;;;;;;5094793;27;43069;-72
2023/10/15 10:49:13;;;;;;;9.30;1.75;;;;;;;;;;5108465;27;40714;-74
2023/10/15 10:51:41;;;;;;;19.02;1.70;;;;;;;;;;5095030;28;41500;-73
2023/10/15 10:54:28;;;;;;;14.70;1.60;;;;;;;;;;5099823;28;40396;-73
2023/10/15 10:56:56;;;;;;;10.23;1.35;;;;;;;;;;5109032;27;42123;-72
2023/10/15 10:59:27;;;;;;;9.57;0.85;;;;;;;;;;5107400;28;41947;-72
2023/10/15 11:01:55;;;;;;;8.73;1.15;;;;;;;;;;5107849;28;40273;-72
2023/10/15 11:04:25;;;;;;;10.57;1.15;;;;;;;;;;5100886;27;41172;-74
2023/10/15 11:06:53;;;;;;;10.63;1.40;;;;;;;;;;5099437;28;43109;-72
2023/10/15 11:09:22;;;;;;;6.13;1.02;;;;;;;;;;5092214;28;41362;-73
2023/10/15 11:11:50;;;;;;;8.18;0.80;;;;;;;;;;5092702;28;41856;-73
2023/10/15 11:14:21;;;;;;;8.23;1.00;;;;;;;;;;5094205;28;41595;-73
2023/10/15 11:16:51;;;;;;;14.57;1.05;;;;;;;;;;5096476;27;40892;-73
2023/10/15 11:19:19;;;;;;;8.18;0.85;;;;;;;;;;5093462;28;44035;-73
2023/10/15 11:21:48;;;;;;;6.90;0.60;;;;;;;;;;5106260;28;41033;-73
2023/10/15 11:24:16;;;;;;;10.93;0.63;;;;;;;;;;5108226;27;41481;-73
2023/10/15 11:26:46;;;;;;;2.65;0.85;;;;;;;;;;5099489;27;42159;-73
2023/10/15 11:29:14;;;;;;;4.28;0.60;;;;;;;;;;5089821;27;39413;-73
2023/10/15 11:31:44;;;;;;;4.30;0.50;;;;;;;;;;5097050;27;41725;-73
2023/10/15 11:34:13;;;;;;;4.75;0.93;;;;;;;;;;5096006;28;42012;-73
2023/10/15 11:36:43;;;;;;;18.05;1.15;;;;;;;;;;5091103;28;40854;-73
2023/10/15 11:39:17;;;;;;;2.63;0.40;;;;;;;;;;5101679;27;41967;-73
2023/10/15 11:41:50;;;;;;;1.35;0.55;;;;;;;;;;5099303;28;40477;-73
2023/10/15 11:44:25;;;;;;;3.35;0.50;;;;;;;;;;5105268;27;42318;-73
2023/10/15 11:46:54;;;;;;;4.53;0.32;;;;;;;;;;5094212;28;43045;-73
2023/10/15 11:49:25;;;;;;;4.75;0.60;;;;;;;;;;5107771;28;41003;-73
2023/10/15 11:51:55;;;;;;;3.03;0.50;;;;;;;;;;5117407;27;42302;-73
2023/10/15 11:54:23;;;;;;;1.95;0.35;;;;;;;;;;5094595;28;42122;-73
2023/10/15 11:56:54;;;;;;;5.43;0.43;;;;;;;;;;5091816;27;41247;-73
2023/10/15 11:59:22;;;;;;;5.07;0.35;;;;;;;;;;5099298;27;42974;-71
2023/10/15 12:01:52;;;;;;;6.97;0.57;;;;;;;;;;5103769;28;39277;-71
2023/10/15 12:04:20;;;;;;;2.92;0.55;;;;;;;;;;5100071;28;41477;-73
2023/10/15 12:06:49;;;;;;;4.97;1.00;;;;;;;;;;5101417;27;41731;-72
2023/10/15 12:09:18;;;;;;;12.07;1.05;;;;;;;;;;5098913;28;39896;-71
2023/10/15 12:11:46;;;;;;;9.27;0.88;;;;;;;;;;5089656;28;41847;-70
2023/10/15 12:14:14;;;;;;;9.35;1.08;;;;;;;;;;5101152;28;42929;-71
2023/10/15 12:16:43;;;;;;;7.03;0.90;;;;;;;;;;5092108;28;40458;-71
2023/10/15 12:19:11;;;;;;;13.60;1.40;;;;;;;;;;5106516;27;42261;-73
2023/10/15 12:21:39;;;;;;;12.88;1.58;;;;;;;;;;5089407;28;41461;-71
2023/10/15 12:24:11;;;;;;;11.80;1.08;;;;;;;;;;5097721;27;42446;-71
2023/10/15 12:26:39;;;;;;;7.30;1.15;;;;;;;;;;5090301;28;42067;-71
2023/10/15 12:29:07;;;;;;;16.90;1.13;;;;;;;;;;5097323;28;40337;-71
2023/10/15 12:31:55;;;;;;;10.23;1.55;;;;;;;;;;5099111;28;42292;-71
2023/10/15 12:34:24;;;;;;;4.45;0.50;;;;;;;;;;5097724;27;42417;-71
2023/10/15 12:36:52;;;;;;;10.88;0.93;;;;;;;;;;5091910;28;38744;-70
2023/10/15 12:39:26;;;;;;;5.03;0.80;;;;;;;;;;5095030;28;41854;-71
2023/10/15 12:41:55;;;;;;;6.20;0.70;;;;;;;;;;5096183;28;34772;-70
2023/10/15 12:44:26;;;;;;;11.50;0.60;;;;;;;;;;5101357;28;41559;-69
2023/10/15 12:46:54;;;;;;;2.50;0.55;;;;;;;;;;5093103;28;42110;-71
2023/10/15 12:49:22;;;;;;;6.72;0.55;;;;;;;;;;5102528;28;41372;-71
2023/10/15 12:51:50;;;;;;;2.58;0.63;;;;;;;;;;5086819;27;42266;-71
2023/10/15 12:54:18;;;;;;;7.00;0.80;;;;;;;;;;5100336;28;43847;-72
2023/10/15 12:56:48;;;;;;;6.95;0.75;;;;;;;;;;5098735;27;41189;-72
2023/10/15 12:59:16;;;;;;;6.07;0.80;;;;;;;;;;5102362;28;41494;-71
2023/10/15 13:01:44;;;;;;;7.53;0.70;;;;;;;;;;5107450;28;41858;-71
2023/10/15 13:04:12;;;;;;;7.85;0.73;;;;;;;;;;5106463;28;41471;-72
2023/10/15 13:06:41;;;;;;;10.52;0.70;;;;;;;;;;5093022;28;42017;-72
2023/10/15 13:09:09;;;;;;;4.00;0.98;;;;;;;;;;5107614;27;40553;-70
2023/10/15 13:11:37;;;;;;;7.90;0.85;;;;;;;;;;5107026;28;42606;-71
2023/10/15 13:14:07;;;;;;;4.03;0.55;;;;;;;;;;5101372;28;41890;-71
2023/10/15 13:16:35;;;;;;;4.78;0.65;;;;;;;;;;5104583;27;41126;-71
2023/10/15 13:19:04;;;;;;;1.55;0.57;;;;;;;;;;5107132;28;42371;-70
2023/10/15 13:21:32;;;;;;;7.70;0.70;;;;;;;;;;5107747;27;42663;-70
2023/10/15 13:24:00;;;;;;;5.72;0.75;;;;;;;;;;5093938;27;40274;-71
2023/10/15 13:26:29;;;;;;;2.70;1.25;;;;;;;;;;5102739;28;43157;-71
2023/10/15 13:28:57;;;;;;;3.53;3.08;;;;;;;;;;5105310;28;41393;-72
2023/10/15 13:31:26;;;;;;;8.13;7.53;;;;;;;;;;5101805;27;41334;-71
2023/10/15 13:33:54;;;;;;;15.30;13.95;;;;;;;;;;5095205;27;43147;-71
2023/10/15 13:36:22;;;;;;;30.70;28.75;;;;;;;;;;5096725;27;40782;-71
2023/10/15 13:38:50;;;;;;;25.70;24.08;;;;;;;;;;5102101;28;41391;-71
2023/10/15 13:41:18;;;;;;;37.47;35.28;;;;;;;;;;5105569;27;42888;-71
2023/10/15 13:43:46;;;;;;;36.60;33.88;;;;;;;;;;5096609;28;40099;-71
2023/10/15 13:46:14;;;;;;;37.47;34.22;;;;;;;;;;5100666;28;41566;-71
2023/10/15 13:48:44;;;;;;;39.55;37.20;;;;;;;;;;5101634;28;40599;-70
2023/10/15 13:51:13;;;;;;;53.03;49.40;;;;;;;;;;5109869;28;41432;-71
2023/10/15 13:53:41;;;;;;;38.42;36.17;;;;;;;;;;5110624;28;42691;-71
2023/10/15 13:56:09;;;;;;;39.92;37.03;;;;;;;;;;5110576;27;40581;-71
2023/10/15 13:58:37;;;;;;;44.63;41.63;;;;;;;;;;5108463;28;42200;-71
2023/10/15 14:01:04;;;;;;;49.13;45.42;;;;;;;;;;5105887;28;42229;-72
2023/10/15 14:03:32;;;;;;;41.28;38.08;;;;;;;;;;5105141;28;39991;-73
2023/10/15 14:06:02;;;;;;;51.08;47.65;;;;;;;;;;5102415;28;42547;-72
2023/10/15 14:08:30;;;;;;;25.38;23.25;;;;;;;;;;5110078;28;40542;-71
2023/10/15 14:10:58;;;;;;;42.70;39.00;;;;;;;;;;5101467;28;41422;-71
2023/10/15 14:13:29;;;;;;;45.53;42.28;;;;;;;;;;5099508;28;41982;-71
2023/10/15 14:16:01;;;;;;;27.58;25.35;;;;;;;;;;5109161;27;41551;-70
2023/10/15 14:18:29;;;;;;;30.63;28.20;;;;;;;;;;5092534;28;42427;-70
2023/10/15 14:20:57;;;;;;;40.92;38.10;;;;;;;;;;5106333;28;42107;-71
2023/10/15 14:23:27;;;;;;;36.53;33.95;;;;;;;;;;5101560;27;40192;-70
2023/10/15 14:25:55;;;;;;;38.45;36.20;;;;;;;;;;5096801;28;41881;-71
2023/10/15 14:28:24;;;;;;;28.75;25.95;;;;;;;;;;5099312;27;42265;-71
2023/10/15 14:30:53;;;;;;;32.75;30.55;;;;;;;;;;5098465;27;40373;-72
2023/10/15 14:33:21;;;;;;;25.33;23.58;;;;;;;;;;5096385;27;42108;-71
2023/10/15 14:35:49;;;;;;;32.20;29.98;;;;;;;;;;5098894;28;40564;-70
2023/10/15 14:38:17;;;;;;;34.22;31.95;;;;;;;;;;5095602;28;41577;-72
2023/10/15 14:40:47;;;;;;;25.70;23.77;;;;;;;;;;5099472;27;41837;-73
2023/10/15 14:43:15;;;;;;;31.88;29.48;;;;;;;;;;5102277;28;39633;-71
2023/10/15 14:45:43;;;;;;;30.27;27.77;;;;;;;;;;5097556;28;41481;-71
2023/10/15 14:48:11;;;;;;;27.33;25.20;;;;;;;;;;5095877;27;41670;-71
2023/10/15 14:50:39;;;;;;;21.40;19.67;;;;;;;;;;5098020;27;41053;-70
2023/10/15 14:53:08;;;;;;;23.80;21.50;;;;;;;;;;5097200;27;41931;-71
2023/10/15 14:55:36;;;;;;;32.78;30.20;;;;;;;;;;5098480;27;40104;-69
2023/10/15 14:58:05;;;;;;;24.73;22.58;;;;;;;;;;5107921;28;41843;-70